sensor_id;sensor_type;location;lat;lon;timestamp;P1;durP1;ratioP1;P2;durP2;ratioP2
31660;SDS011;18267;52.234;7.444;2022-10-16T00:01:17;5.55;;;1.00;;
31660;SDS011;18267;52.234;7.444;2022-10-16T00:03:45;3.30;;;0.88;;
31660;SDS011;18267;52.234;7.444;2022-10-16T00:06:12;4.40;;;1.00;;
31660;SDS011;18267;52.234;7.444;2022-10-16T00:08:38;3.83;;;0.90;;
31660;SDS011;18267;52.234;7.444;2022-10-16T00:11:08;4.20;;;1.15;;
31660;SDS011;18267;52.234;7.444;2022-10-16T00:13:40;6.22;;;1.05;;
31660;SDS011;18267;52.234;7.444;2022-10-16T00:16:07;3.25;;;1.00;;
31660;SDS011;18267;52.234;7.444;2022-10-16T00:18:34;6.07;;;1.08;;
31660;SDS011;18267;52.234;7.444;2022-10-16T00:21:04;2.38;;;1.25;;
31660;SDS011;18267;52.234;7.444;2022-10-16T00:23:31;1.50;;;1.05;;
31660;SDS011;18267;52.234;7.444;2022-10-16T00:25:58;8.60;;;1.40;;
31660;SDS011;18267;52.234;7.444;2022-10-16T00:28:25;1.27;;;1.10;;
31660;SDS011;18267;52.234;7.444;2022-10-16T00:30:51;8.88;;;1.90;;
31660;SDS011;18267;52.234;7.444;2022-10-16T00:33:17;3.08;;;1.33;;
31660;SDS011;18267;52.234;7.444;2022-10-16T00:35:43;6.80;;;1.40;;
31660;SDS011;18267;52.234;7.444;2022-10-16T00:38:09;5.57;;;1.40;;
31660;SDS011;18267;52.234;7.444;2022-10-16T00:40:35;10.93;;;1.42;;
31660;SDS011;18267;52.234;7.444;2022-10-16T00:43:00;4.03;;;1.73;;
31660;SDS011;18267;52.234;7.444;2022-10-16T00:45:26;1.60;;;1.27;;
31660;SDS011;18267;52.234;7.444;2022-10-16T00:47:51;8.90;;;2.33;;
31660;SDS011;18267;52.234;7.444;2022-10-16T00:52:52;3.97;;;1.58;;
31660;SDS011;18267;52.234;7.444;2022-10-16T00:55:19;4.68;;;2.05;;
31660;SDS011;18267;52.234;7.444;2022-10-16T00:57:45;2.60;;;1.50;;
31660;SDS011;18267;52.234;7.444;2022-10-16T01:00:12;4.47;;;1.70;;
31660;SDS011;18267;52.234;7.444;2022-10-16T01:02:40;11.20;;;1.73;;
31660;SDS011;18267;52.234;7.444;2022-10-16T01:05:06;3.85;;;1.50;;
31660;SDS011;18267;52.234;7.444;2022-10-16T01:13:04;5.50;;;1.85;;
31660;SDS011;18267;52.234;7.444;2022-10-16T01:18:14;9.02;;;2.38;;
31660;SDS011;18267;52.234;7.444;2022-10-16T01:20:50;4.13;;;2.13;;
31660;SDS011;18267;52.234;7.444;2022-10-16T01:29:18;10.50;;;2.22;;
31660;SDS011;18267;52.234;7.444;2022-10-16T01:31:48;7.82;;;2.92;;
31660;SDS011;18267;52.234;7.444;2022-10-16T01:34:23;8.05;;;2.92;;
31660;SDS011;18267;52.234;7.444;2022-10-16T01:37:02;7.18;;;3.25;;
31660;SDS011;18267;52.234;7.444;2022-10-16T01:39:37;7.18;;;2.85;;
31660;SDS011;18267;52.234;7.444;2022-10-16T01:42:11;13.20;;;2.90;;
31660;SDS011;18267;52.234;7.444;2022-10-16T01:44:44;7.65;;;3.15;;
31660;SDS011;18267;52.234;7.444;2022-10-16T01:47:11;6.50;;;3.50;;
31660;SDS011;18267;52.234;7.444;2022-10-16T01:49:38;8.57;;;3.30;;
31660;SDS011;18267;52.234;7.444;2022-10-16T01:52:06;6.32;;;3.38;;
31660;SDS011;18267;52.234;7.444;2022-10-16T01:54:35;7.95;;;4.13;;
31660;SDS011;18267;52.234;7.444;2022-10-16T01:57:03;13.75;;;3.17;;
31660;SDS011;18267;52.234;7.444;2022-10-16T01:59:31;8.15;;;3.67;;
31660;SDS011;18267;52.234;7.444;2022-10-16T02:01:59;12.70;;;3.85;;
31660;SDS011;18267;52.234;7.444;2022-10-16T02:04:27;12.65;;;3.78;;
31660;SDS011;18267;52.234;7.444;2022-10-16T02:06:59;9.50;;;4.30;;
31660;SDS011;18267;52.234;7.444;2022-10-16T02:09:25;14.73;;;4.20;;
31660;SDS011;18267;52.234;7.444;2022-10-16T02:11:52;9.15;;;4.65;;
31660;SDS011;18267;52.234;7.444;2022-10-16T02:14:19;10.73;;;5.13;;
31660;SDS011;18267;52.234;7.444;2022-10-16T02:16:47;10.32;;;4.63;;
31660;SDS011;18267;52.234;7.444;2022-10-16T02:19:13;7.38;;;4.38;;
31660;SDS011;18267;52.234;7.444;2022-10-16T02:21:47;7.25;;;4.32;;
31660;SDS011;18267;52.234;7.444;2022-10-16T02:29:29;9.38;;;5.22;;
31660;SDS011;18267;52.234;7.444;2022-10-16T02:31:59;10.02;;;5.22;;
31660;SDS011;18267;52.234;7.444;2022-10-16T02:34:27;11.20;;;4.90;;
31660;SDS011;18267;52.234;7.444;2022-10-16T02:36:55;11.00;;;4.80;;
31660;SDS011;18267;52.234;7.444;2022-10-16T02:39:23;17.00;;;5.30;;
31660;SDS011;18267;52.234;7.444;2022-10-16T02:41:49;10.23;;;6.30;;
31660;SDS011;18267;52.234;7.444;2022-10-16T02:44:15;13.15;;;5.03;;
31660;SDS011;18267;52.234;7.444;2022-10-16T02:46:40;11.13;;;5.65;;
31660;SDS011;18267;52.234;7.444;2022-10-16T02:49:06;7.43;;;4.60;;
31660;SDS011;18267;52.234;7.444;2022-10-16T02:51:31;12.20;;;5.57;;
31660;SDS011;18267;52.234;7.444;2022-10-16T02:53:57;13.45;;;5.65;;
31660;SDS011;18267;52.234;7.444;2022-10-16T02:56:22;16.65;;;5.82;;
31660;SDS011;18267;52.234;7.444;2022-10-16T02:58:48;16.60;;;6.28;;
31660;SDS011;18267;52.234;7.444;2022-10-16T03:01:14;27.05;;;6.53;;
31660;SDS011;18267;52.234;7.444;2022-10-16T03:03:41;11.25;;;6.18;;
31660;SDS011;18267;52.234;7.444;2022-10-16T03:06:08;15.00;;;6.78;;
31660;SDS011;18267;52.234;7.444;2022-10-16T03:08:33;11.02;;;6.05;;
31660;SDS011;18267;52.234;7.444;2022-10-16T03:10:59;11.63;;;7.05;;
31660;SDS011;18267;52.234;7.444;2022-10-16T03:13:24;11.60;;;6.93;;
31660;SDS011;18267;52.234;7.444;2022-10-16T03:15:50;9.98;;;5.85;;
31660;SDS011;18267;52.234;7.444;2022-10-16T03:18:16;12.35;;;5.85;;
31660;SDS011;18267;52.234;7.444;2022-10-16T03:20:42;10.20;;;5.57;;
31660;SDS011;18267;52.234;7.444;2022-10-16T03:23:08;12.35;;;6.45;;
31660;SDS011;18267;52.234;7.444;2022-10-16T03:25:33;11.55;;;6.00;;
31660;SDS011;18267;52.234;7.444;2022-10-16T03:27:59;14.55;;;6.32;;
31660;SDS011;18267;52.234;7.444;2022-10-16T03:30:25;13.38;;;5.95;;
31660;SDS011;18267;52.234;7.444;2022-10-16T03:32:50;9.23;;;5.75;;
31660;SDS011;18267;52.234;7.444;2022-10-16T03:35:19;7.45;;;5.25;;
31660;SDS011;18267;52.234;7.444;2022-10-16T03:37:45;17.27;;;4.88;;
31660;SDS011;18267;52.234;7.444;2022-10-16T03:40:10;10.00;;;4.55;;
31660;SDS011;18267;52.234;7.444;2022-10-16T03:42:36;10.65;;;5.03;;
31660;SDS011;18267;52.234;7.444;2022-10-16T03:45:02;12.80;;;4.55;;
31660;SDS011;18267;52.234;7.444;2022-10-16T03:47:28;15.68;;;4.68;;
31660;SDS011;18267;52.234;7.444;2022-10-16T03:49:53;11.77;;;5.22;;
31660;SDS011;18267;52.234;7.444;2022-10-16T03:52:19;12.95;;;4.30;;
31660;SDS011;18267;52.234;7.444;2022-10-16T03:54:44;12.68;;;4.00;;
31660;SDS011;18267;52.234;7.444;2022-10-16T03:57:10;12.80;;;4.93;;
31660;SDS011;18267;52.234;7.444;2022-10-16T03:59:36;6.70;;;4.10;;
31660;SDS011;18267;52.234;7.444;2022-10-16T04:02:01;6.10;;;3.90;;
31660;SDS011;18267;52.234;7.444;2022-10-16T04:04:27;6.75;;;4.25;;
31660;SDS011;18267;52.234;7.444;2022-10-16T04:06:52;10.38;;;4.38;;
31660;SDS011;18267;52.234;7.444;2022-10-16T04:09:18;9.82;;;4.45;;
31660;SDS011;18267;52.234;7.444;2022-10-16T04:11:43;8.10;;;4.47;;
31660;SDS011;18267;52.234;7.444;2022-10-16T04:14:09;8.02;;;3.75;;
31660;SDS011;18267;52.234;7.444;2022-10-16T04:16:35;6.70;;;3.97;;
31660;SDS011;18267;52.234;7.444;2022-10-16T04:19:00;6.32;;;4.10;;
31660;SDS011;18267;52.234;7.444;2022-10-16T04:21:26;8.38;;;4.15;;
31660;SDS011;18267;52.234;7.444;2022-10-16T04:23:51;12.40;;;4.90;;
31660;SDS011;18267;52.234;7.444;2022-10-16T04:26:17;11.40;;;4.03;;
31660;SDS011;18267;52.234;7.444;2022-10-16T04:28:42;4.55;;;3.42;;
31660;SDS011;18267;52.234;7.444;2022-10-16T04:31:08;15.02;;;4.10;;
31660;SDS011;18267;52.234;7.444;2022-10-16T04:33:34;9.90;;;3.65;;
31660;SDS011;18267;52.234;7.444;2022-10-16T04:36:00;5.38;;;4.15;;
31660;SDS011;18267;52.234;7.444;2022-10-16T04:38:26;5.13;;;3.85;;
31660;SDS011;18267;52.234;7.444;2022-10-16T04:40:52;9.25;;;3.85;;
31660;SDS011;18267;52.234;7.444;2022-10-16T04:43:20;12.45;;;3.60;;
31660;SDS011;18267;52.234;7.444;2022-10-16T04:45:45;4.38;;;3.72;;
31660;SDS011;18267;52.234;7.444;2022-10-16T04:48:11;8.80;;;3.67;;
31660;SDS011;18267;52.234;7.444;2022-10-16T04:50:37;7.20;;;4.43;;
31660;SDS011;18267;52.234;7.444;2022-10-16T04:53:03;7.35;;;3.60;;
31660;SDS011;18267;52.234;7.444;2022-10-16T04:55:28;8.95;;;4.45;;
31660;SDS011;18267;52.234;7.444;2022-10-16T04:57:54;10.70;;;3.40;;
31660;SDS011;18267;52.234;7.444;2022-10-16T05:00:19;8.90;;;3.67;;
31660;SDS011;18267;52.234;7.444;2022-10-16T05:02:45;12.02;;;3.95;;
31660;SDS011;18267;52.234;7.444;2022-10-16T05:05:11;5.47;;;3.25;;
31660;SDS011;18267;52.234;7.444;2022-10-16T05:07:36;6.35;;;3.85;;
31660;SDS011;18267;52.234;7.444;2022-10-16T05:10:02;6.90;;;3.63;;
31660;SDS011;18267;52.234;7.444;2022-10-16T05:12:28;15.32;;;4.18;;
31660;SDS011;18267;52.234;7.444;2022-10-16T05:14:53;7.15;;;3.70;;
31660;SDS011;18267;52.234;7.444;2022-10-16T05:17:23;11.20;;;3.85;;
31660;SDS011;18267;52.234;7.444;2022-10-16T05:19:49;11.82;;;3.60;;
31660;SDS011;18267;52.234;7.444;2022-10-16T05:22:15;9.52;;;4.15;;
31660;SDS011;18267;52.234;7.444;2022-10-16T05:24:41;6.20;;;3.03;;
31660;SDS011;18267;52.234;7.444;2022-10-16T05:27:06;6.55;;;3.53;;
31660;SDS011;18267;52.234;7.444;2022-10-16T05:29:32;10.52;;;3.67;;
31660;SDS011;18267;52.234;7.444;2022-10-16T05:31:57;6.15;;;3.58;;
31660;SDS011;18267;52.234;7.444;2022-10-16T05:34:23;5.03;;;3.00;;
31660;SDS011;18267;52.234;7.444;2022-10-16T05:36:48;19.17;;;4.25;;
31660;SDS011;18267;52.234;7.444;2022-10-16T05:39:14;4.88;;;3.33;;
31660;SDS011;18267;52.234;7.444;2022-10-16T05:41:40;9.77;;;3.33;;
31660;SDS011;18267;52.234;7.444;2022-10-16T05:44:06;8.95;;;3.15;;
31660;SDS011;18267;52.234;7.444;2022-10-16T05:46:32;6.85;;;3.00;;
31660;SDS011;18267;52.234;7.444;2022-10-16T05:48:57;6.68;;;3.13;;
31660;SDS011;18267;52.234;7.444;2022-10-16T05:51:23;6.35;;;2.90;;
31660;SDS011;18267;52.234;7.444;2022-10-16T05:53:49;6.03;;;3.15;;
31660;SDS011;18267;52.234;7.444;2022-10-16T05:56:16;3.65;;;3.28;;
31660;SDS011;18267;52.234;7.444;2022-10-16T05:58:42;10.68;;;3.20;;
31660;SDS011;18267;52.234;7.444;2022-10-16T06:01:10;7.45;;;3.20;;
31660;SDS011;18267;52.234;7.444;2022-10-16T06:03:37;3.70;;;2.75;;
31660;SDS011;18267;52.234;7.444;2022-10-16T06:06:07;8.57;;;2.88;;
31660;SDS011;18267;52.234;7.444;2022-10-16T06:08:36;7.68;;;2.97;;
31660;SDS011;18267;52.234;7.444;2022-10-16T06:11:03;4.20;;;2.72;;
31660;SDS011;18267;52.234;7.444;2022-10-16T06:13:30;7.18;;;2.80;;
31660;SDS011;18267;52.234;7.444;2022-10-16T06:15:57;6.22;;;2.67;;
31660;SDS011;18267;52.234;7.444;2022-10-16T06:18:24;8.80;;;2.40;;
31660;SDS011;18267;52.234;7.444;2022-10-16T06:20:50;2.90;;;2.30;;
31660;SDS011;18267;52.234;7.444;2022-10-16T06:23:16;4.50;;;2.17;;
31660;SDS011;18267;52.234;7.444;2022-10-16T06:25:41;7.88;;;2.63;;
31660;SDS011;18267;52.234;7.444;2022-10-16T06:28:07;2.90;;;1.92;;
31660;SDS011;18267;52.234;7.444;2022-10-16T06:30:32;6.35;;;2.20;;
31660;SDS011;18267;52.234;7.444;2022-10-16T06:32:58;2.55;;;1.50;;
31660;SDS011;18267;52.234;7.444;2022-10-16T06:35:23;5.90;;;1.95;;
31660;SDS011;18267;52.234;7.444;2022-10-16T06:37:49;2.35;;;1.48;;
31660;SDS011;18267;52.234;7.444;2022-10-16T06:40:15;2.78;;;1.40;;
31660;SDS011;18267;52.234;7.444;2022-10-16T06:42:41;4.15;;;1.70;;
31660;SDS011;18267;52.234;7.444;2022-10-16T06:45:07;6.00;;;1.75;;
31660;SDS011;18267;52.234;7.444;2022-10-16T06:47:32;3.42;;;1.65;;
31660;SDS011;18267;52.234;7.444;2022-10-16T06:49:58;6.38;;;1.67;;
31660;SDS011;18267;52.234;7.444;2022-10-16T06:52:24;3.58;;;1.35;;
31660;SDS011;18267;52.234;7.444;2022-10-16T06:54:49;5.18;;;1.27;;
31660;SDS011;18267;52.234;7.444;2022-10-16T06:57:15;1.90;;;1.33;;
31660;SDS011;18267;52.234;7.444;2022-10-16T06:59:41;4.63;;;1.15;;
31660;SDS011;18267;52.234;7.444;2022-10-16T07:02:07;2.88;;;1.25;;
31660;SDS011;18267;52.234;7.444;2022-10-16T07:04:35;7.75;;;1.55;;
31660;SDS011;18267;52.234;7.444;2022-10-16T07:07:00;3.30;;;1.58;;
31660;SDS011;18267;52.234;7.444;2022-10-16T07:09:26;4.93;;;1.50;;
31660;SDS011;18267;52.234;7.444;2022-10-16T07:11:52;2.17;;;1.30;;
31660;SDS011;18267;52.234;7.444;2022-10-16T07:14:18;4.90;;;1.80;;
31660;SDS011;18267;52.234;7.444;2022-10-16T07:16:45;3.30;;;1.10;;
31660;SDS011;18267;52.234;7.444;2022-10-16T07:19:12;12.40;;;1.40;;
31660;SDS011;18267;52.234;7.444;2022-10-16T07:21:39;2.20;;;1.08;;
31660;SDS011;18267;52.234;7.444;2022-10-16T07:24:06;5.07;;;1.08;;
31660;SDS011;18267;52.234;7.444;2022-10-16T07:26:36;6.47;;;1.75;;
31660;SDS011;18267;52.234;7.444;2022-10-16T07:29:04;3.53;;;1.55;;
31660;SDS011;18267;52.234;7.444;2022-10-16T07:31:40;2.42;;;1.38;;
31660;SDS011;18267;52.234;7.444;2022-10-16T07:34:06;2.53;;;1.20;;
31660;SDS011;18267;52.234;7.444;2022-10-16T07:36:32;2.55;;;1.17;;
31660;SDS011;18267;52.234;7.444;2022-10-16T07:38:57;1.48;;;1.35;;
31660;SDS011;18267;52.234;7.444;2022-10-16T07:41:23;3.90;;;1.13;;
31660;SDS011;18267;52.234;7.444;2022-10-16T07:43:49;7.25;;;1.60;;
31660;SDS011;18267;52.234;7.444;2022-10-16T07:46:16;2.40;;;1.00;;
31660;SDS011;18267;52.234;7.444;2022-10-16T07:48:43;2.63;;;1.02;;
31660;SDS011;18267;52.234;7.444;2022-10-16T07:51:12;3.53;;;1.20;;
31660;SDS011;18267;52.234;7.444;2022-10-16T07:53:38;2.05;;;1.00;;
31660;SDS011;18267;52.234;7.444;2022-10-16T07:56:05;2.80;;;1.23;;
31660;SDS011;18267;52.234;7.444;2022-10-16T07:58:32;5.82;;;2.03;;
31660;SDS011;18267;52.234;7.444;2022-10-16T08:00:59;3.03;;;1.05;;
31660;SDS011;18267;52.234;7.444;2022-10-16T08:03:29;4.82;;;1.48;;
31660;SDS011;18267;52.234;7.444;2022-10-16T08:05:56;1.83;;;0.90;;
31660;SDS011;18267;52.234;7.444;2022-10-16T08:08:22;5.95;;;1.35;;
31660;SDS011;18267;52.234;7.444;2022-10-16T08:10:48;2.15;;;0.98;;
31660;SDS011;18267;52.234;7.444;2022-10-16T08:13:13;2.45;;;1.50;;
31660;SDS011;18267;52.234;7.444;2022-10-16T08:15:40;3.40;;;1.08;;
31660;SDS011;18267;52.234;7.444;2022-10-16T08:18:09;2.55;;;0.90;;
31660;SDS011;18267;52.234;7.444;2022-10-16T08:20:37;6.85;;;1.17;;
31660;SDS011;18267;52.234;7.444;2022-10-16T08:23:03;3.20;;;0.90;;
31660;SDS011;18267;52.234;7.444;2022-10-16T08:25:29;5.13;;;1.17;;
31660;SDS011;18267;52.234;7.444;2022-10-16T08:27:55;2.08;;;1.33;;
31660;SDS011;18267;52.234;7.444;2022-10-16T08:30:21;1.77;;;1.40;;
31660;SDS011;18267;52.234;7.444;2022-10-16T08:32:47;2.95;;;1.63;;
31660;SDS011;18267;52.234;7.444;2022-10-16T08:35:13;4.05;;;1.15;;
31660;SDS011;18267;52.234;7.444;2022-10-16T08:37:40;2.85;;;0.98;;
31660;SDS011;18267;52.234;7.444;2022-10-16T08:40:06;1.17;;;0.82;;
31660;SDS011;18267;52.234;7.444;2022-10-16T08:50:31;8.02;;;1.17;;
31660;SDS011;18267;52.234;7.444;2022-10-16T08:53:01;6.40;;;1.20;;
31660;SDS011;18267;52.234;7.444;2022-10-16T08:55:38;3.95;;;1.25;;
31660;SDS011;18267;52.234;7.444;2022-10-16T08:58:12;2.35;;;1.17;;
31660;SDS011;18267;52.234;7.444;2022-10-16T09:00:43;2.30;;;1.05;;
31660;SDS011;18267;52.234;7.444;2022-10-16T09:20:20;3.83;;;1.13;;
31660;SDS011;18267;52.234;7.444;2022-10-16T09:23:27;4.90;;;0.93;;
31660;SDS011;18267;52.234;7.444;2022-10-16T09:25:59;6.70;;;1.00;;
31660;SDS011;18267;52.234;7.444;2022-10-16T09:28:25;4.93;;;1.00;;
31660;SDS011;18267;52.234;7.444;2022-10-16T09:30:50;9.95;;;1.00;;
31660;SDS011;18267;52.234;7.444;2022-10-16T09:33:17;5.70;;;0.80;;
31660;SDS011;18267;52.234;7.444;2022-10-16T09:35:52;2.40;;;0.95;;
31660;SDS011;18267;52.234;7.444;2022-10-16T09:38:26;4.65;;;1.23;;
31660;SDS011;18267;52.234;7.444;2022-10-16T09:41:02;4.18;;;1.00;;
31660;SDS011;18267;52.234;7.444;2022-10-16T09:49:18;1.83;;;0.65;;
31660;SDS011;18267;52.234;7.444;2022-10-16T09:51:47;6.47;;;0.90;;
31660;SDS011;18267;52.234;7.444;2022-10-16T09:56:40;6.10;;;0.70;;
31660;SDS011;18267;52.234;7.444;2022-10-16T09:59:13;4.10;;;0.93;;
31660;SDS011;18267;52.234;7.444;2022-10-16T10:01:40;2.28;;;1.10;;
31660;SDS011;18267;52.234;7.444;2022-10-16T10:04:06;6.80;;;1.10;;
31660;SDS011;18267;52.234;7.444;2022-10-16T10:06:33;2.30;;;0.57;;
31660;SDS011;18267;52.234;7.444;2022-10-16T10:11:37;10.15;;;1.58;;
31660;SDS011;18267;52.234;7.444;2022-10-16T10:16:38;4.75;;;1.00;;
31660;SDS011;18267;52.234;7.444;2022-10-16T10:19:04;1.35;;;0.93;;
31660;SDS011;18267;52.234;7.444;2022-10-16T10:21:38;5.18;;;0.88;;
31660;SDS011;18267;52.234;7.444;2022-10-16T10:24:03;3.50;;;0.85;;
31660;SDS011;18267;52.234;7.444;2022-10-16T10:26:31;7.35;;;0.90;;
31660;SDS011;18267;52.234;7.444;2022-10-16T10:29:00;1.95;;;0.90;;
31660;SDS011;18267;52.234;7.444;2022-10-16T10:31:47;2.60;;;1.00;;
31660;SDS011;18267;52.234;7.444;2022-10-16T10:42:54;5.28;;;1.30;;
31660;SDS011;18267;52.234;7.444;2022-10-16T10:45:41;7.22;;;1.20;;
31660;SDS011;18267;52.234;7.444;2022-10-16T10:50:57;1.92;;;1.10;;
31660;SDS011;18267;52.234;7.444;2022-10-16T10:56:39;4.80;;;1.85;;
31660;SDS011;18267;52.234;7.444;2022-10-16T11:07:57;6.40;;;2.63;;
31660;SDS011;18267;52.234;7.444;2022-10-16T11:10:27;9.13;;;3.20;;
31660;SDS011;18267;52.234;7.444;2022-10-16T11:12:58;7.43;;;3.03;;
31660;SDS011;18267;52.234;7.444;2022-10-16T11:15:35;11.07;;;2.83;;
31660;SDS011;18267;52.234;7.444;2022-10-16T11:18:06;11.93;;;2.72;;
31660;SDS011;18267;52.234;7.444;2022-10-16T11:20:55;3.85;;;3.10;;
31660;SDS011;18267;52.234;7.444;2022-10-16T11:25:56;11.30;;;2.95;;
31660;SDS011;18267;52.234;7.444;2022-10-16T11:28:27;9.55;;;3.20;;
31660;SDS011;18267;52.234;7.444;2022-10-16T11:31:04;4.85;;;2.70;;
31660;SDS011;18267;52.234;7.444;2022-10-16T11:36:29;11.07;;;3.00;;
31660;SDS011;18267;52.234;7.444;2022-10-16T11:39:10;6.63;;;2.92;;
31660;SDS011;18267;52.234;7.444;2022-10-16T11:41:48;8.95;;;2.92;;
31660;SDS011;18267;52.234;7.444;2022-10-16T11:50:01;4.70;;;2.20;;
31660;SDS011;18267;52.234;7.444;2022-10-16T11:52:51;8.70;;;2.47;;
31660;SDS011;18267;52.234;7.444;2022-10-16T11:55:37;10.02;;;2.05;;
31660;SDS011;18267;52.234;7.444;2022-10-16T12:03:35;9.50;;;1.60;;
31660;SDS011;18267;52.234;7.444;2022-10-16T12:09:26;4.53;;;1.45;;
31660;SDS011;18267;52.234;7.444;2022-10-16T12:11:54;6.43;;;1.40;;
31660;SDS011;18267;52.234;7.444;2022-10-16T12:14:22;7.50;;;1.38;;
31660;SDS011;18267;52.234;7.444;2022-10-16T12:17:01;6.85;;;1.65;;
31660;SDS011;18267;52.234;7.444;2022-10-16T12:19:31;4.32;;;1.40;;
31660;SDS011;18267;52.234;7.444;2022-10-16T12:21:58;7.72;;;1.80;;
31660;SDS011;18267;52.234;7.444;2022-10-16T12:27:17;6.35;;;1.00;;
31660;SDS011;18267;52.234;7.444;2022-10-16T12:29:48;9.38;;;1.40;;
31660;SDS011;18267;52.234;7.444;2022-10-16T12:32:34;13.18;;;1.95;;
31660;SDS011;18267;52.234;7.444;2022-10-16T12:35:04;8.82;;;1.20;;
31660;SDS011;18267;52.234;7.444;2022-10-16T12:37:42;9.30;;;0.90;;
31660;SDS011;18267;52.234;7.444;2022-10-16T12:40:22;6.13;;;1.27;;
31660;SDS011;18267;52.234;7.444;2022-10-16T12:42:54;6.50;;;1.00;;
31660;SDS011;18267;52.234;7.444;2022-10-16T12:47:50;8.60;;;1.40;;
31660;SDS011;18267;52.234;7.444;2022-10-16T12:50:32;9.88;;;1.00;;
31660;SDS011;18267;52.234;7.444;2022-10-16T12:53:00;8.68;;;1.13;;
31660;SDS011;18267;52.234;7.444;2022-10-16T12:55:30;7.60;;;1.20;;
31660;SDS011;18267;52.234;7.444;2022-10-16T12:58:20;3.55;;;0.60;;
31660;SDS011;18267;52.234;7.444;2022-10-16T13:00:57;3.03;;;1.00;;
31660;SDS011;18267;52.234;7.444;2022-10-16T13:06:06;4.47;;;0.50;;
31660;SDS011;18267;52.234;7.444;2022-10-16T13:08:50;2.78;;;0.70;;
31660;SDS011;18267;52.234;7.444;2022-10-16T13:11:24;3.47;;;0.90;;
31660;SDS011;18267;52.234;7.444;2022-10-16T13:14:17;5.13;;;0.85;;
31660;SDS011;18267;52.234;7.444;2022-10-16T13:19:57;5.30;;;0.95;;
31660;SDS011;18267;52.234;7.444;2022-10-16T13:22:31;5.80;;;1.20;;
31660;SDS011;18267;52.234;7.444;2022-10-16T13:25:20;4.95;;;0.90;;
31660;SDS011;18267;52.234;7.444;2022-10-16T13:30:20;3.95;;;1.00;;
31660;SDS011;18267;52.234;7.444;2022-10-16T13:32:51;9.77;;;0.80;;
31660;SDS011;18267;52.234;7.444;2022-10-16T13:35:49;3.22;;;0.43;;
31660;SDS011;18267;52.234;7.444;2022-10-16T13:38:20;8.40;;;0.60;;
31660;SDS011;18267;52.234;7.444;2022-10-16T13:40:56;12.80;;;0.82;;
31660;SDS011;18267;52.234;7.444;2022-10-16T13:43:37;9.98;;;1.08;;
31660;SDS011;18267;52.234;7.444;2022-10-16T13:46:12;5.32;;;1.10;;
31660;SDS011;18267;52.234;7.444;2022-10-16T13:48:42;6.07;;;0.90;;
31660;SDS011;18267;52.234;7.444;2022-10-16T13:51:15;5.47;;;0.98;;
31660;SDS011;18267;52.234;7.444;2022-10-16T13:53:42;5.63;;;0.80;;
31660;SDS011;18267;52.234;7.444;2022-10-16T13:56:13;3.30;;;0.80;;
31660;SDS011;18267;52.234;7.444;2022-10-16T13:58:40;6.15;;;0.80;;
31660;SDS011;18267;52.234;7.444;2022-10-16T14:04:09;5.07;;;0.80;;
31660;SDS011;18267;52.234;7.444;2022-10-16T14:06:40;3.25;;;0.80;;
31660;SDS011;18267;52.234;7.444;2022-10-16T14:09:08;9.95;;;1.02;;
31660;SDS011;18267;52.234;7.444;2022-10-16T14:11:46;8.07;;;0.87;;
31660;SDS011;18267;52.234;7.444;2022-10-16T14:14:16;8.48;;;0.93;;
31660;SDS011;18267;52.234;7.444;2022-10-16T14:16:42;10.95;;;0.75;;
31660;SDS011;18267;52.234;7.444;2022-10-16T14:19:19;2.15;;;0.73;;
31660;SDS011;18267;52.234;7.444;2022-10-16T14:21:52;11.32;;;1.10;;
31660;SDS011;18267;52.234;7.444;2022-10-16T14:24:24;5.40;;;0.88;;
31660;SDS011;18267;52.234;7.444;2022-10-16T14:26:52;9.30;;;0.85;;
31660;SDS011;18267;52.234;7.444;2022-10-16T14:29:21;10.00;;;0.88;;
31660;SDS011;18267;52.234;7.444;2022-10-16T14:32:20;2.88;;;0.68;;
31660;SDS011;18267;52.234;7.444;2022-10-16T14:34:52;2.88;;;0.55;;
31660;SDS011;18267;52.234;7.444;2022-10-16T14:37:28;10.30;;;1.02;;
31660;SDS011;18267;52.234;7.444;2022-10-16T14:39:55;11.05;;;1.10;;
31660;SDS011;18267;52.234;7.444;2022-10-16T14:42:22;7.18;;;0.70;;
31660;SDS011;18267;52.234;7.444;2022-10-16T14:44:50;7.32;;;0.85;;
31660;SDS011;18267;52.234;7.444;2022-10-16T14:47:21;8.88;;;0.90;;
31660;SDS011;18267;52.234;7.444;2022-10-16T14:49:51;5.75;;;0.90;;
31660;SDS011;18267;52.234;7.444;2022-10-16T14:52:20;7.45;;;0.88;;
31660;SDS011;18267;52.234;7.444;2022-10-16T14:54:49;1.70;;;0.75;;
31660;SDS011;18267;52.234;7.444;2022-10-16T14:57:16;4.22;;;0.70;;
31660;SDS011;18267;52.234;7.444;2022-10-16T14:59:43;3.60;;;0.90;;
31660;SDS011;18267;52.234;7.444;2022-10-16T15:02:16;8.00;;;1.20;;
31660;SDS011;18267;52.234;7.444;2022-10-16T15:04:47;3.78;;;0.93;;
31660;SDS011;18267;52.234;7.444;2022-10-16T15:07:13;6.28;;;0.70;;
31660;SDS011;18267;52.234;7.444;2022-10-16T15:09:39;8.55;;;1.15;;
31660;SDS011;18267;52.234;7.444;2022-10-16T15:12:05;7.72;;;1.00;;
31660;SDS011;18267;52.234;7.444;2022-10-16T15:14:30;3.97;;;1.02;;
31660;SDS011;18267;52.234;7.444;2022-10-16T15:16:56;8.50;;;1.25;;
31660;SDS011;18267;52.234;7.444;2022-10-16T15:19:22;7.90;;;0.65;;
31660;SDS011;18267;52.234;7.444;2022-10-16T15:21:47;8.77;;;0.93;;
31660;SDS011;18267;52.234;7.444;2022-10-16T15:24:14;7.28;;;1.00;;
31660;SDS011;18267;52.234;7.444;2022-10-16T15:26:40;5.72;;;0.80;;
31660;SDS011;18267;52.234;7.444;2022-10-16T15:29:06;5.47;;;0.90;;
31660;SDS011;18267;52.234;7.444;2022-10-16T15:31:32;3.08;;;0.90;;
31660;SDS011;18267;52.234;7.444;2022-10-16T15:33:58;10.43;;;0.93;;
31660;SDS011;18267;52.234;7.444;2022-10-16T15:36:29;6.63;;;1.05;;
31660;SDS011;18267;52.234;7.444;2022-10-16T15:38:58;10.07;;;1.20;;
31660;SDS011;18267;52.234;7.444;2022-10-16T15:41:24;5.47;;;0.88;;
31660;SDS011;18267;52.234;7.444;2022-10-16T15:43:50;5.00;;;0.90;;
31660;SDS011;18267;52.234;7.444;2022-10-16T15:46:17;3.63;;;0.80;;
31660;SDS011;18267;52.234;7.444;2022-10-16T15:48:45;3.78;;;0.82;;
31660;SDS011;18267;52.234;7.444;2022-10-16T15:51:11;3.08;;;0.65;;
31660;SDS011;18267;52.234;7.444;2022-10-16T15:53:37;4.95;;;0.80;;
31660;SDS011;18267;52.234;7.444;2022-10-16T15:56:05;7.47;;;0.95;;
31660;SDS011;18267;52.234;7.444;2022-10-16T15:58:33;3.13;;;0.73;;
31660;SDS011;18267;52.234;7.444;2022-10-16T16:00:59;2.72;;;0.70;;
31660;SDS011;18267;52.234;7.444;2022-10-16T16:03:26;4.00;;;0.93;;
31660;SDS011;18267;52.234;7.444;2022-10-16T16:05:52;8.48;;;0.63;;
31660;SDS011;18267;52.234;7.444;2022-10-16T16:08:18;13.63;;;1.08;;
31660;SDS011;18267;52.234;7.444;2022-10-16T16:10:44;7.03;;;0.93;;
31660;SDS011;18267;52.234;7.444;2022-10-16T16:13:10;3.13;;;1.05;;
31660;SDS011;18267;52.234;7.444;2022-10-16T16:15:38;6.50;;;0.75;;
31660;SDS011;18267;52.234;7.444;2022-10-16T16:18:05;11.52;;;0.80;;
31660;SDS011;18267;52.234;7.444;2022-10-16T16:20:31;10.45;;;0.82;;
31660;SDS011;18267;52.234;7.444;2022-10-16T16:22:57;16.30;;;1.15;;
31660;SDS011;18267;52.234;7.444;2022-10-16T16:25:22;9.75;;;0.93;;
31660;SDS011;18267;52.234;7.444;2022-10-16T16:27:48;4.25;;;0.65;;
31660;SDS011;18267;52.234;7.444;2022-10-16T16:30:14;4.50;;;0.60;;
31660;SDS011;18267;52.234;7.444;2022-10-16T16:32:41;7.07;;;0.80;;
31660;SDS011;18267;52.234;7.444;2022-10-16T16:35:07;6.97;;;1.13;;
31660;SDS011;18267;52.234;7.444;2022-10-16T16:37:33;2.60;;;0.65;;
31660;SDS011;18267;52.234;7.444;2022-10-16T16:39:59;2.58;;;0.82;;
31660;SDS011;18267;52.234;7.444;2022-10-16T16:42:25;6.60;;;0.80;;
31660;SDS011;18267;52.234;7.444;2022-10-16T16:44:51;6.03;;;0.70;;
31660;SDS011;18267;52.234;7.444;2022-10-16T16:47:17;8.15;;;1.25;;
31660;SDS011;18267;52.234;7.444;2022-10-16T16:49:43;7.55;;;0.80;;
31660;SDS011;18267;52.234;7.444;2022-10-16T16:52:11;2.83;;;0.93;;
31660;SDS011;18267;52.234;7.444;2022-10-16T16:54:37;3.60;;;0.60;;